sensor_id;sensor_type;location;lat;lon;timestamp;temperature;humidity
14877;DHT22;69691;48.172;17.070;2023-08-30T00:00:55;18.20;99.90
14877;DHT22;69691;48.172;17.070;2023-08-30T00:03:21;18.20;99.90
14877;DHT22;69691;48.172;17.070;2023-08-30T00:05:46;18.20;99.90
14877;DHT22;69691;48.172;17.070;2023-08-30T00:08:12;18.20;99.90
14877;DHT22;69691;48.172;17.070;2023-08-30T00:10:38;18.10;99.90
14877;DHT22;69691;48.172;17.070;2023-08-30T00:13:05;18.10;99.90
14877;DHT22;69691;48.172;17.070;2023-08-30T00:15:30;18.00;99.90
14877;DHT22;69691;48.172;17.070;2023-08-30T00:17:56;18.00;99.90
14877;DHT22;69691;48.172;17.070;2023-08-30T00:20:22;18.00;99.90
14877;DHT22;69691;48.172;17.070;2023-08-30T00:22:48;18.00;99.90
14877;DHT22;69691;48.172;17.070;2023-08-30T00:25:14;17.90;99.90
14877;DHT22;69691;48.172;17.070;2023-08-30T00:27:41;17.90;99.90
14877;DHT22;69691;48.172;17.070;2023-08-30T00:30:07;17.90;99.90
14877;DHT22;69691;48.172;17.070;2023-08-30T00:32:34;17.90;99.90
14877;DHT22;69691;48.172;17.070;2023-08-30T00:35:01;17.90;99.90
14877;DHT22;69691;48.172;17.070;2023-08-30T00:37:27;17.90;99.90
14877;DHT22;69691;48.172;17.070;2023-08-30T00:39:53;17.90;99.90
14877;DHT22;69691;48.172;17.070;2023-08-30T00:42:19;18.00;99.90
14877;DHT22;69691;48.172;17.070;2023-08-30T00:44:45;17.90;99.90
14877;DHT22;69691;48.172;17.070;2023-08-30T00:47:10;18.00;99.90
14877;DHT22;69691;48.172;17.070;2023-08-30T00:49:36;18.00;99.90
14877;DHT22;69691;48.172;17.070;2023-08-30T00:52:02;18.00;99.90
14877;DHT22;69691;48.172;17.070;2023-08-30T00:54:33;18.00;99.90
14877;DHT22;69691;48.172;17.070;2023-08-30T00:57:00;18.10;99.90
14877;DHT22;69691;48.172;17.070;2023-08-30T00:59:27;18.10;99.90
14877;DHT22;69691;48.172;17.070;2023-08-30T01:01:53;18.20;99.90
14877;DHT22;69691;48.172;17.070;2023-08-30T01:04:20;18.20;99.90
14877;DHT22;69691;48.172;17.070;2023-08-30T01:06:47;18.20;99.90
14877;DHT22;69691;48.172;17.070;2023-08-30T01:09:14;18.20;99.90
14877;DHT22;69691;48.172;17.070;2023-08-30T01:14:18;18.20;99.90
14877;DHT22;69691;48.172;17.070;2023-08-30T01:16:46;18.10;99.90
14877;DHT22;69691;48.172;17.070;2023-08-30T01:19:26;18.10;99.90
14877;DHT22;69691;48.172;17.070;2023-08-30T01:22:04;18.10;99.90
14877;DHT22;69691;48.172;17.070;2023-08-30T01:27:34;18.10;99.90
14877;DHT22;69691;48.172;17.070;2023-08-30T01:30:02;18.10;99.90
14877;DHT22;69691;48.172;17.070;2023-08-30T01:32:28;18.10;99.90
14877;DHT22;69691;48.172;17.070;2023-08-30T01:34:55;18.10;99.90
14877;DHT22;69691;48.172;17.070;2023-08-30T01:37:21;18.20;99.90
14877;DHT22;69691;48.172;17.070;2023-08-30T01:39:47;18.20;99.90
14877;DHT22;69691;48.172;17.070;2023-08-30T01:42:14;18.20;99.90
14877;DHT22;69691;48.172;17.070;2023-08-30T01:44:42;18.30;99.90
14877;DHT22;69691;48.172;17.070;2023-08-30T01:47:10;18.40;99.90
14877;DHT22;69691;48.172;17.070;2023-08-30T01:49:36;18.40;99.90
14877;DHT22;69691;48.172;17.070;2023-08-30T01:52:05;18.50;99.90
14877;DHT22;69691;48.172;17.070;2023-08-30T01:54:32;18.50;99.90
14877;DHT22;69691;48.172;17.070;2023-08-30T01:56:58;18.60;99.90
14877;DHT22;69691;48.172;17.070;2023-08-30T01:59:24;18.70;99.90
14877;DHT22;69691;48.172;17.070;2023-08-30T02:01:51;18.70;99.90
14877;DHT22;69691;48.172;17.070;2023-08-30T02:04:17;18.70;99.90
14877;DHT22;69691;48.172;17.070;2023-08-30T02:06:48;18.70;99.90
14877;DHT22;69691;48.172;17.070;2023-08-30T02:12:10;18.70;99.90
14877;DHT22;69691;48.172;17.070;2023-08-30T02:14:42;18.70;99.90
14877;DHT22;69691;48.172;17.070;2023-08-30T02:17:10;18.70;99.90
14877;DHT22;69691;48.172;17.070;2023-08-30T02:19:38;18.80;99.90
14877;DHT22;69691;48.172;17.070;2023-08-30T02:22:03;18.80;99.80
14877;DHT22;69691;48.172;17.070;2023-08-30T02:24:29;18.80;99.60
14877;DHT22;69691;48.172;17.070;2023-08-30T02:26:56;18.80;99.50
14877;DHT22;69691;48.172;17.070;2023-08-30T02:29:22;18.80;99.40
14877;DHT22;69691;48.172;17.070;2023-08-30T02:31:47;18.80;99.40
14877;DHT22;69691;48.172;17.070;2023-08-30T02:34:13;18.80;99.30
14877;DHT22;69691;48.172;17.070;2023-08-30T02:36:39;18.80;99.30
14877;DHT22;69691;48.172;17.070;2023-08-30T02:39:04;18.80;99.10
14877;DHT22;69691;48.172;17.070;2023-08-30T02:41:31;18.80;99.20
14877;DHT22;69691;48.172;17.070;2023-08-30T02:43:57;18.80;99.20
14877;DHT22;69691;48.172;17.070;2023-08-30T02:46:22;18.80;99.30
14877;DHT22;69691;48.172;17.070;2023-08-30T02:48:48;18.90;99.10
14877;DHT22;69691;48.172;17.070;2023-08-30T02:51:14;18.90;99.20
14877;DHT22;69691;48.172;17.070;2023-08-30T02:53:39;18.90;99.20
14877;DHT22;69691;48.172;17.070;2023-08-30T02:56:05;18.90;98.80
14877;DHT22;69691;48.172;17.070;2023-08-30T02:58:31;18.90;98.70
14877;DHT22;69691;48.172;17.070;2023-08-30T03:00:59;18.90;98.80
14877;DHT22;69691;48.172;17.070;2023-08-30T03:03:25;18.90;98.90
14877;DHT22;69691;48.172;17.070;2023-08-30T03:05:52;18.90;98.70
14877;DHT22;69691;48.172;17.070;2023-08-30T03:08:18;18.80;98.70
14877;DHT22;69691;48.172;17.070;2023-08-30T03:10:43;18.80;98.60
14877;DHT22;69691;48.172;17.070;2023-08-30T03:13:11;18.80;98.70
14877;DHT22;69691;48.172;17.070;2023-08-30T03:15:37;18.90;98.80
14877;DHT22;69691;48.172;17.070;2023-08-30T03:18:03;18.90;98.60
14877;DHT22;69691;48.172;17.070;2023-08-30T03:20:29;18.90;98.50
14877;DHT22;69691;48.172;17.070;2023-08-30T03:22:58;19.00;98.80
14877;DHT22;69691;48.172;17.070;2023-08-30T03:25:24;19.00;98.60
14877;DHT22;69691;48.172;17.070;2023-08-30T03:27:50;19.00;98.40
14877;DHT22;69691;48.172;17.070;2023-08-30T03:30:16;19.10;98.40
14877;DHT22;69691;48.172;17.070;2023-08-30T03:32:42;19.00;98.30
14877;DHT22;69691;48.172;17.070;2023-08-30T03:35:08;19.10;98.20
14877;DHT22;69691;48.172;17.070;2023-08-30T03:37:34;19.00;97.90
14877;DHT22;69691;48.172;17.070;2023-08-30T03:40:00;19.00;98.10
14877;DHT22;69691;48.172;17.070;2023-08-30T03:42:27;18.90;98.00
14877;DHT22;69691;48.172;17.070;2023-08-30T03:44:52;19.00;98.00
14877;DHT22;69691;48.172;17.070;2023-08-30T03:47:18;19.00;98.00
14877;DHT22;69691;48.172;17.070;2023-08-30T03:49:44;19.00;98.00
14877;DHT22;69691;48.172;17.070;2023-08-30T03:52:10;19.00;97.90
14877;DHT22;69691;48.172;17.070;2023-08-30T03:54:35;19.00;97.90
14877;DHT22;69691;48.172;17.070;2023-08-30T03:57:01;19.00;97.90
14877;DHT22;69691;48.172;17.070;2023-08-30T03:59:28;19.00;97.90
14877;DHT22;69691;48.172;17.070;2023-08-30T04:01:54;18.90;97.70
14877;DHT22;69691;48.172;17.070;2023-08-30T04:04:20;18.90;97.70
14877;DHT22;69691;48.172;17.070;2023-08-30T04:06:47;18.90;97.90
14877;DHT22;69691;48.172;17.070;2023-08-30T04:09:15;18.90;98.00
14877;DHT22;69691;48.172;17.070;2023-08-30T04:11:41;19.00;98.00
14877;DHT22;69691;48.172;17.070;2023-08-30T04:14:07;19.00;98.00
14877;DHT22;69691;48.172;17.070;2023-08-30T04:16:34;19.00;98.10
14877;DHT22;69691;48.172;17.070;2023-08-30T04:19:00;19.00;98.00
14877;DHT22;69691;48.172;17.070;2023-08-30T04:21:26;19.00;97.90
14877;DHT22;69691;48.172;17.070;2023-08-30T04:23:52;19.00;98.00
14877;DHT22;69691;48.172;17.070;2023-08-30T04:26:17;19.10;98.00
14877;DHT22;69691;48.172;17.070;2023-08-30T04:28:43;19.10;97.90
14877;DHT22;69691;48.172;17.070;2023-08-30T04:31:09;19.10;98.00
14877;DHT22;69691;48.172;17.070;2023-08-30T04:33:35;19.10;98.00
14877;DHT22;69691;48.172;17.070;2023-08-30T04:36:03;19.10;98.00
14877;DHT22;69691;48.172;17.070;2023-08-30T04:38:29;19.10;98.00
14877;DHT22;69691;48.172;17.070;2023-08-30T04:40:59;19.10;97.90
14877;DHT22;69691;48.172;17.070;2023-08-30T04:43:26;19.20;97.90
14877;DHT22;69691;48.172;17.070;2023-08-30T04:45:52;19.10;98.00
14877;DHT22;69691;48.172;17.070;2023-08-30T04:48:17;19.20;97.90
14877;DHT22;69691;48.172;17.070;2023-08-30T04:50:43;19.10;98.00
14877;DHT22;69691;48.172;17.070;2023-08-30T04:53:09;19.20;97.90
14877;DHT22;69691;48.172;17.070;2023-08-30T04:55:35;19.20;98.00
14877;DHT22;69691;48.172;17.070;2023-08-30T04:58:00;19.10;98.00
14877;DHT22;69691;48.172;17.070;2023-08-30T05:00:31;19.20;98.20
14877;DHT22;69691;48.172;17.070;2023-08-30T05:02:57;19.20;98.30
14877;DHT22;69691;48.172;17.070;2023-08-30T05:05:23;19.30;98.20
14877;DHT22;69691;48.172;17.070;2023-08-30T05:07:49;19.30;98.30
14877;DHT22;69691;48.172;17.070;2023-08-30T05:10:14;19.30;98.40
14877;DHT22;69691;48.172;17.070;2023-08-30T05:12:41;19.30;98.50
14877;DHT22;69691;48.172;17.070;2023-08-30T05:15:09;19.40;98.40
14877;DHT22;69691;48.172;17.070;2023-08-30T05:17:35;19.40;98.20
14877;DHT22;69691;48.172;17.070;2023-08-30T05:20:01;19.50;98.00
14877;DHT22;69691;48.172;17.070;2023-08-30T05:22:28;19.40;97.80
14877;DHT22;69691;48.172;17.070;2023-08-30T05:24:54;19.40;97.80
14877;DHT22;69691;48.172;17.070;2023-08-30T05:27:20;19.50;97.90
14877;DHT22;69691;48.172;17.070;2023-08-30T05:29:47;19.50;98.10
14877;DHT22;69691;48.172;17.070;2023-08-30T05:32:13;19.60;97.60
14877;DHT22;69691;48.172;17.070;2023-08-30T05:35:02;19.60;97.60
14877;DHT22;69691;48.172;17.070;2023-08-30T05:37:40;19.80;98.10
14877;DHT22;69691;48.172;17.070;2023-08-30T05:40:37;19.90;98.20
14877;DHT22;69691;48.172;17.070;2023-08-30T05:43:07;20.30;98.00
14877;DHT22;69691;48.172;17.070;2023-08-30T05:45:33;20.50;97.70
14877;DHT22;69691;48.172;17.070;2023-08-30T05:47:59;20.60;97.30
14877;DHT22;69691;48.172;17.070;2023-08-30T05:50:25;20.80;96.60
14877;DHT22;69691;48.172;17.070;2023-08-30T05:52:50;20.80;96.30
14877;DHT22;69691;48.172;17.070;2023-08-30T05:55:17;21.00;96.40
14877;DHT22;69691;48.172;17.070;2023-08-30T05:57:43;21.00;95.30
14877;DHT22;69691;48.172;17.070;2023-08-30T06:00:09;21.10;95.30
14877;DHT22;69691;48.172;17.070;2023-08-30T06:02:41;21.20;95.40
14877;DHT22;69691;48.172;17.070;2023-08-30T06:05:07;21.40;95.60
14877;DHT22;69691;48.172;17.070;2023-08-30T06:07:33;21.60;95.20
14877;DHT22;69691;48.172;17.070;2023-08-30T06:09:59;21.80;94.60
14877;DHT22;69691;48.172;17.070;2023-08-30T06:12:25;21.90;94.80
14877;DHT22;69691;48.172;17.070;2023-08-30T06:14:51;22.10;93.80
14877;DHT22;69691;48.172;17.070;2023-08-30T06:17:18;22.20;93.20
14877;DHT22;69691;48.172;17.070;2023-08-30T06:19:45;22.20;92.80
14877;DHT22;69691;48.172;17.070;2023-08-30T06:22:11;22.30;92.70
14877;DHT22;69691;48.172;17.070;2023-08-30T06:24:37;22.40;92.60
14877;DHT22;69691;48.172;17.070;2023-08-30T06:27:03;22.40;91.70
14877;DHT22;69691;48.172;17.070;2023-08-30T06:29:29;22.40;92.10
14877;DHT22;69691;48.172;17.070;2023-08-30T06:31:55;22.50;92.50
14877;DHT22;69691;48.172;17.070;2023-08-30T06:34:21;22.60;91.60
14877;DHT22;69691;48.172;17.070;2023-08-30T06:36:47;22.70;90.70
14877;DHT22;69691;48.172;17.070;2023-08-30T06:39:13;22.70;90.60
14877;DHT22;69691;48.172;17.070;2023-08-30T06:41:39;22.70;90.60
14877;DHT22;69691;48.172;17.070;2023-08-30T06:44:04;22.70;89.60
14877;DHT22;69691;48.172;17.070;2023-08-30T06:46:30;22.70;88.10
14877;DHT22;69691;48.172;17.070;2023-08-30T06:48:56;22.60;88.60
14877;DHT22;69691;48.172;17.070;2023-08-30T06:51:22;22.70;89.70
14877;DHT22;69691;48.172;17.070;2023-08-30T06:53:48;22.80;88.40
14877;DHT22;69691;48.172;17.070;2023-08-30T06:56:13;22.80;86.50
14877;DHT22;69691;48.172;17.070;2023-08-30T06:58:39;22.80;86.30
14877;DHT22;69691;48.172;17.070;2023-08-30T07:01:05;22.80;86.40
14877;DHT22;69691;48.172;17.070;2023-08-30T07:03:31;22.80;86.20
14877;DHT22;69691;48.172;17.070;2023-08-30T07:05:56;22.90;86.30
14877;DHT22;69691;48.172;17.070;2023-08-30T07:08:22;22.90;84.60
14877;DHT22;69691;48.172;17.070;2023-08-30T07:10:48;22.90;86.10
14877;DHT22;69691;48.172;17.070;2023-08-30T07:13:14;23.10;84.80
14877;DHT22;69691;48.172;17.070;2023-08-30T07:15:40;23.20;83.50
14877;DHT22;69691;48.172;17.070;2023-08-30T07:18:07;23.40;83.10
14877;DHT22;69691;48.172;17.070;2023-08-30T07:20:33;23.50;81.40
14877;DHT22;69691;48.172;17.070;2023-08-30T07:23:00;23.70;81.40
14877;DHT22;69691;48.172;17.070;2023-08-30T07:25:26;23.90;80.00
14877;DHT22;69691;48.172;17.070;2023-08-30T07:27:52;24.00;78.40
14877;DHT22;69691;48.172;17.070;2023-08-30T07:30:18;24.10;77.20
14877;DHT22;69691;48.172;17.070;2023-08-30T07:32:43;24.10;75.30
14877;DHT22;69691;48.172;17.070;2023-08-30T07:35:09;24.00;74.80
14877;DHT22;69691;48.172;17.070;2023-08-30T07:37:35;23.90;74.80
14877;DHT22;69691;48.172;17.070;2023-08-30T07:40:01;23.90;74.40
14877;DHT22;69691;48.172;17.070;2023-08-30T07:42:30;23.80;73.70
14877;DHT22;69691;48.172;17.070;2023-08-30T07:44:55;23.80;74.00
14877;DHT22;69691;48.172;17.070;2023-08-30T07:47:21;23.80;74.80
14877;DHT22;69691;48.172;17.070;2023-08-30T07:49:47;23.80;74.30
14877;DHT22;69691;48.172;17.070;2023-08-30T07:52:13;23.80;74.30
14877;DHT22;69691;48.172;17.070;2023-08-30T07:54:39;23.70;73.20
14877;DHT22;69691;48.172;17.070;2023-08-30T07:57:05;23.70;72.00
14877;DHT22;69691;48.172;17.070;2023-08-30T07:59:37;23.50;72.10
14877;DHT22;69691;48.172;17.070;2023-08-30T08:02:04;23.50;72.90
14877;DHT22;69691;48.172;17.070;2023-08-30T08:04:32;23.50;71.80
14877;DHT22;69691;48.172;17.070;2023-08-30T08:06:57;23.60;72.50
14877;DHT22;69691;48.172;17.070;2023-08-30T08:09:23;23.70;72.60
14877;DHT22;69691;48.172;17.070;2023-08-30T08:11:49;23.90;72.90
14877;DHT22;69691;48.172;17.070;2023-08-30T08:14:15;24.00;71.80
14877;DHT22;69691;48.172;17.070;2023-08-30T08:16:41;24.00;71.10
14877;DHT22;69691;48.172;17.070;2023-08-30T08:19:07;24.00;71.30
14877;DHT22;69691;48.172;17.070;2023-08-30T08:21:33;24.10;71.00
14877;DHT22;69691;48.172;17.070;2023-08-30T08:23:59;24.10;70.20
14877;DHT22;69691;48.172;17.070;2023-08-30T08:26:25;24.00;70.00
14877;DHT22;69691;48.172;17.070;2023-08-30T08:28:51;23.90;69.10
14877;DHT22;69691;48.172;17.070;2023-08-30T08:31:17;23.80;69.20
14877;DHT22;69691;48.172;17.070;2023-08-30T08:33:43;23.70;70.00
14877;DHT22;69691;48.172;17.070;2023-08-30T08:36:09;23.60;69.80
14877;DHT22;69691;48.172;17.070;2023-08-30T08:38:35;23.40;70.00
14877;DHT22;69691;48.172;17.070;2023-08-30T08:41:01;23.30;70.10
14877;DHT22;69691;48.172;17.070;2023-08-30T08:43:28;23.30;70.80
14877;DHT22;69691;48.172;17.070;2023-08-30T08:45:58;23.30;70.60
14877;DHT22;69691;48.172;17.070;2023-08-30T08:48:25;23.30;70.90
14877;DHT22;69691;48.172;17.070;2023-08-30T08:50:53;23.40;71.70
14877;DHT22;69691;48.172;17.070;2023-08-30T08:53:20;23.50;70.10
14877;DHT22;69691;48.172;17.070;2023-08-30T08:55:46;23.50;69.80
14877;DHT22;69691;48.172;17.070;2023-08-30T08:58:12;23.50;69.40
14877;DHT22;69691;48.172;17.070;2023-08-30T09:00:41;23.50;69.10
14877;DHT22;69691;48.172;17.070;2023-08-30T09:03:08;23.50;69.10
14877;DHT22;69691;48.172;17.070;2023-08-30T09:05:35;23.60;69.60
14877;DHT22;69691;48.172;17.070;2023-08-30T09:08:04;23.70;68.80
14877;DHT22;69691;48.172;17.070;2023-08-30T09:10:31;23.80;67.70
14877;DHT22;69691;48.172;17.070;2023-08-30T09:12:58;23.80;67.80
14877;DHT22;69691;48.172;17.070;2023-08-30T09:15:34;23.90;67.70
14877;DHT22;69691;48.172;17.070;2023-08-30T09:18:02;24.00;67.70
14877;DHT22;69691;48.172;17.070;2023-08-30T09:20:28;24.20;67.00
14877;DHT22;69691;48.172;17.070;2023-08-30T09:22:54;24.30;67.30
14877;DHT22;69691;48.172;17.070;2023-08-30T09:25:23;24.50;67.20
14877;DHT22;69691;48.172;17.070;2023-08-30T09:27:50;24.60;65.50
14877;DHT22;69691;48.172;17.070;2023-08-30T09:30:23;24.70;66.10
14877;DHT22;69691;48.172;17.070;2023-08-30T09:32:48;25.00;65.80
14877;DHT22;69691;48.172;17.070;2023-08-30T09:35:14;25.20;65.00
14877;DHT22;69691;48.172;17.070;2023-08-30T09:37:40;25.30;64.00
14877;DHT22;69691;48.172;17.070;2023-08-30T09:40:06;25.50;62.90
14877;DHT22;69691;48.172;17.070;2023-08-30T09:42:32;25.60;62.40
14877;DHT22;69691;48.172;17.070;2023-08-30T09:44:58;25.70;61.30
14877;DHT22;69691;48.172;17.070;2023-08-30T09:47:24;25.90;61.90
14877;DHT22;69691;48.172;17.070;2023-08-30T09:49:52;26.00;61.10
14877;DHT22;69691;48.172;17.070;2023-08-30T09:52:20;26.10;60.60
14877;DHT22;69691;48.172;17.070;2023-08-30T09:54:48;26.10;59.60
14877;DHT22;69691;48.172;17.070;2023-08-30T09:57:15;26.10;58.80
14877;DHT22;69691;48.172;17.070;2023-08-30T09:59:42;26.00;59.20
14877;DHT22;69691;48.172;17.070;2023-08-30T10:02:08;25.90;59.60
14877;DHT22;69691;48.172;17.070;2023-08-30T10:04:37;25.90;60.00
14877;DHT22;69691;48.172;17.070;2023-08-30T10:07:07;25.90;59.50
14877;DHT22;69691;48.172;17.070;2023-08-30T10:09:33;25.80;59.70
14877;DHT22;69691;48.172;17.070;2023-08-30T10:11:59;25.80;59.50
14877;DHT22;69691;48.172;17.070;2023-08-30T10:14:26;25.80;59.90
14877;DHT22;69691;48.172;17.070;2023-08-30T10:16:59;25.80;59.00
14877;DHT22;69691;48.172;17.070;2023-08-30T10:19:27;25.70;59.30
14877;DHT22;69691;48.172;17.070;2023-08-30T10:21:56;25.70;59.80
14877;DHT22;69691;48.172;17.070;2023-08-30T10:24:41;25.90;59.80
14877;DHT22;69691;48.172;17.070;2023-08-30T10:27:09;26.00;59.60
14877;DHT22;69691;48.172;17.070;2023-08-30T10:29:36;26.10;59.50
14877;DHT22;69691;48.172;17.070;2023-08-30T10:32:03;26.20;59.10
14877;DHT22;69691;48.172;17.070;2023-08-30T10:34:33;26.30;58.60
14877;DHT22;69691;48.172;17.070;2023-08-30T10:37:00;26.40;58.30
14877;DHT22;69691;48.172;17.070;2023-08-30T10:39:33;26.30;57.70
14877;DHT22;69691;48.172;17.070;2023-08-30T10:42:06;25.90;57.70
14877;DHT22;69691;48.172;17.070;2023-08-30T10:44:33;25.50;58.60
14877;DHT22;69691;48.172;17.070;2023-08-30T10:47:01;25.30;59.30
14877;DHT22;69691;48.172;17.070;2023-08-30T10:49:27;25.40;59.50
14877;DHT22;69691;48.172;17.070;2023-08-30T10:51:54;25.40;59.50
14877;DHT22;69691;48.172;17.070;2023-08-30T10:54:36;25.50;58.70
14877;DHT22;69691;48.172;17.070;2023-08-30T10:57:02;25.50;59.10
14877;DHT22;69691;48.172;17.070;2023-08-30T10:59:28;25.60;59.40
14877;DHT22;69691;48.172;17.070;2023-08-30T11:01:55;25.60;58.60
14877;DHT22;69691;48.172;17.070;2023-08-30T11:04:23;25.40;58.50
14877;DHT22;69691;48.172;17.070;2023-08-30T11:06:50;25.30;58.90
14877;DHT22;69691;48.172;17.070;2023-08-30T11:09:18;25.20;59.00
14877;DHT22;69691;48.172;17.070;2023-08-30T11:11:47;25.00;59.60
14877;DHT22;69691;48.172;17.070;2023-08-30T11:14:14;24.90;60.00
14877;DHT22;69691;48.172;17.070;2023-08-30T11:16:40;24.80;60.00
14877;DHT22;69691;48.172;17.070;2023-08-30T11:19:06;24.80;60.40
14877;DHT22;69691;48.172;17.070;2023-08-30T11:21:34;24.80;60.80
14877;DHT22;69691;48.172;17.070;2023-08-30T11:24:03;25.00;61.10
14877;DHT22;69691;48.172;17.070;2023-08-30T11:26:29;25.10;61.00
14877;DHT22;69691;48.172;17.070;2023-08-30T11:28:55;25.30;60.00
14877;DHT22;69691;48.172;17.070;2023-08-30T11:31:26;25.20;59.80
14877;DHT22;69691;48.172;17.070;2023-08-30T11:33:53;25.10;59.70
14877;DHT22;69691;48.172;17.070;2023-08-30T11:36:21;25.00;60.10
14877;DHT22;69691;48.172;17.070;2023-08-30T11:38:51;25.00;60.10
14877;DHT22;69691;48.172;17.070;2023-08-30T11:41:19;25.10;60.10
14877;DHT22;69691;48.172;17.070;2023-08-30T11:43:45;25.20;60.00
14877;DHT22;69691;48.172;17.070;2023-08-30T11:46:15;25.30;59.80
14877;DHT22;69691;48.172;17.070;2023-08-30T11:48:42;25.40;59.50
14877;DHT22;69691;48.172;17.070;2023-08-30T11:51:08;25.30;59.00
14877;DHT22;69691;48.172;17.070;2023-08-30T11:53:34;25.30;59.20
14877;DHT22;69691;48.172;17.070;2023-08-30T11:56:00;25.20;59.10
14877;DHT22;69691;48.172;17.070;2023-08-30T11:58:26;25.20;59.50
14877;DHT22;69691;48.172;17.070;2023-08-30T12:00:52;25.20;59.10
14877;DHT22;69691;48.172;17.070;2023-08-30T12:03:19;25.10;58.80
14877;DHT22;69691;48.172;17.070;2023-08-30T12:05:46;25.10;58.70
14877;DHT22;69691;48.172;17.070;2023-08-30T12:08:25;25.00;59.20
14877;DHT22;69691;48.172;17.070;2023-08-30T12:10:56;25.10;59.40
14877;DHT22;69691;48.172;17.070;2023-08-30T12:13:23;25.30;59.00
14877;DHT22;69691;48.172;17.070;2023-08-30T12:15:53;25.50;58.90
14877;DHT22;69691;48.172;17.070;2023-08-30T12:18:26;25.60;57.80
14877;DHT22;69691;48.172;17.070;2023-08-30T12:20:54;25.60;57.40
14877;DHT22;69691;48.172;17.070;2023-08-30T12:23:28;25.60;56.70
14877;DHT22;69691;48.172;17.070;2023-08-30T12:26:04;25.60;57.50
14877;DHT22;69691;48.172;17.070;2023-08-30T12:28:32;25.60;57.20
14877;DHT22;69691;48.172;17.070;2023-08-30T12:30:59;25.50;57.60
14877;DHT22;69691;48.172;17.070;2023-08-30T12:33:25;25.50;57.70
14877;DHT22;69691;48.172;17.070;2023-08-30T12:35:52;25.40;57.40
14877;DHT22;69691;48.172;17.070;2023-08-30T12:38:18;25.30;57.80
14877;DHT22;69691;48.172;17.070;2023-08-30T12:40:47;25.30;57.90
14877;DHT22;69691;48.172;17.070;2023-08-30T12:43:14;25.40;58.30
14877;DHT22;69691;48.172;17.070;2023-08-30T12:45:41;25.50;57.50
14877;DHT22;69691;48.172;17.070;2023-08-30T12:48:08;25.50;57.40
14877;DHT22;69691;48.172;17.070;2023-08-30T12:50:34;25.50;57.40
14877;DHT22;69691;48.172;17.070;2023-08-30T12:53:01;25.40;57.10
14877;DHT22;69691;48.172;17.070;2023-08-30T12:55:36;25.20;57.40
14877;DHT22;69691;48.172;17.070;2023-08-30T12:58:08;25.00;58.30
14877;DHT22;69691;48.172;17.070;2023-08-30T13:00:34;24.90;58.10
14877;DHT22;69691;48.172;17.070;2023-08-30T13:03:00;24.90;58.30
14877;DHT22;69691;48.172;17.070;2023-08-30T13:05:27;24.90;58.40
14877;DHT22;69691;48.172;17.070;2023-08-30T13:07:53;24.90;58.60
14877;DHT22;69691;48.172;17.070;2023-08-30T13:10:19;24.90;58.20
14877;DHT22;69691;48.172;17.070;2023-08-30T13:12:45;25.00;58.10
14877;DHT22;69691;48.172;17.070;2023-08-30T13:15:11;25.00;57.70
14877;DHT22;69691;48.172;17.070;2023-08-30T13:17:37;25.00;57.70
14877;DHT22;69691;48.172;17.070;2023-08-30T13:20:03;25.10;57.70
14877;DHT22;69691;48.172;17.070;2023-08-30T13:22:29;25.10;57.70
14877;DHT22;69691;48.172;17.070;2023-08-30T13:24:54;25.20;57.40
14877;DHT22;69691;48.172;17.070;2023-08-30T13:27:20;25.20;57.50
14877;DHT22;69691;48.172;17.070;2023-08-30T13:29:46;25.30;57.40
14877;DHT22;69691;48.172;17.070;2023-08-30T13:32:12;25.30;57.20
14877;DHT22;69691;48.172;17.070;2023-08-30T13:34:38;25.30;57.00
14877;DHT22;69691;48.172;17.070;2023-08-30T13:37:11;25.30;57.20
14877;DHT22;69691;48.172;17.070;2023-08-30T13:39:38;25.30;57.30
14877;DHT22;69691;48.172;17.070;2023-08-30T13:42:07;25.40;56.90
14877;DHT22;69691;48.172;17.070;2023-08-30T13:44:33;25.30;56.70
14877;DHT22;69691;48.172;17.070;2023-08-30T13:47:05;25.30;57.20
14877;DHT22;69691;48.172;17.070;2023-08-30T13:49:31;25.30;57.10
14877;DHT22;69691;48.172;17.070;2023-08-30T13:51:57;25.30;57.50
14877;DHT22;69691;48.172;17.070;2023-08-30T13:54:23;25.40;57.30
14877;DHT22;69691;48.172;17.070;2023-08-30T13:56:50;25.40;57.00
14877;DHT22;69691;48.172;17.070;2023-08-30T13:59:16;25.50;57.30
14877;DHT22;69691;48.172;17.070;2023-08-30T14:01:41;25.60;57.20
14877;DHT22;69691;48.172;17.070;2023-08-30T14:04:07;25.70;57.10
14877;DHT22;69691;48.172;17.070;2023-08-30T14:06:33;25.70;56.60
14877;DHT22;69691;48.172;17.070;2023-08-30T14:08:59;25.70;56.60
14877;DHT22;69691;48.172;17.070;2023-08-30T14:11:25;25.60;56.50
14877;DHT22;69691;48.172;17.070;2023-08-30T14:13:51;25.40;56.90
14877;DHT22;69691;48.172;17.070;2023-08-30T14:16:17;25.30;56.90
14877;DHT22;69691;48.172;17.070;2023-08-30T14:18:42;25.10;56.90
14877;DHT22;69691;48.172;17.070;2023-08-30T14:21:08;25.00;57.30
14877;DHT22;69691;48.172;17.070;2023-08-30T14:23:34;24.70;57.40
14877;DHT22;69691;48.172;17.070;2023-08-30T14:26:05;24.60;57.70
14877;DHT22;69691;48.172;17.070;2023-08-30T14:28:39;24.50;58.20
14877;DHT22;69691;48.172;17.070;2023-08-30T14:31:08;24.50;58.50
14877;DHT22;69691;48.172;17.070;2023-08-30T14:33:35;24.50;58.60
14877;DHT22;69691;48.172;17.070;2023-08-30T14:36:02;24.50;58.60
14877;DHT22;69691;48.172;17.070;2023-08-30T14:38:28;24.60;59.00
14877;DHT22;69691;48.172;17.070;2023-08-30T14:40:58;24.60;58.90
14877;DHT22;69691;48.172;17.070;2023-08-30T14:43:24;24.70;58.70
14877;DHT22;69691;48.172;17.070;2023-08-30T14:45:50;24.70;58.30
14877;DHT22;69691;48.172;17.070;2023-08-30T14:48:16;24.70;58.20
14877;DHT22;69691;48.172;17.070;2023-08-30T14:50:42;24.60;58.30
14877;DHT22;69691;48.172;17.070;2023-08-30T14:53:08;24.60;58.50
14877;DHT22;69691;48.172;17.070;2023-08-30T14:55:34;24.60;58.80
14877;DHT22;69691;48.172;17.070;2023-08-30T14:58:00;24.60;58.70
14877;DHT22;69691;48.172;17.070;2023-08-30T15:00:25;24.70;58.80
14877;DHT22;69691;48.172;17.070;2023-08-30T15:02:51;24.70;58.70
14877;DHT22;69691;48.172;17.070;2023-08-30T15:05:17;24.70;58.70
14877;DHT22;69691;48.172;17.070;2023-08-30T15:07:43;24.70;58.80
14877;DHT22;69691;48.172;17.070;2023-08-30T15:10:09;24.60;58.90
14877;DHT22;69691;48.172;17.070;2023-08-30T15:12:35;24.60;58.90
14877;DHT22;69691;48.172;17.070;2023-08-30T15:15:02;24.50;59.00
14877;DHT22;69691;48.172;17.070;2023-08-30T15:17:28;24.40;59.00
14877;DHT22;69691;48.172;17.070;2023-08-30T15:19:54;24.40;59.10
14877;DHT22;69691;48.172;17.070;2023-08-30T15:22:20;24.30;59.10